createdAt,value
2019-02-04T00:00:39.406Z,99.99
2019-02-04T00:01:39.387Z,99.99
2019-02-04T00:02:39.423Z,99.99
2019-02-04T00:03:49.618Z,99.99
2019-02-04T00:04:39.355Z,99.99
2019-02-04T00:05:39.352Z,99.99
2019-02-04T00:06:39.338Z,99.99
2019-02-04T00:07:39.330Z,99.99
2019-02-04T00:08:39.364Z,99.99
2019-02-04T00:09:39.310Z,99.99
2019-02-04T00:10:39.296Z,99.99
2019-02-04T00:11:39.320Z,99.99
2019-02-04T00:12:39.276Z,99.99
2019-02-04T00:13:39.263Z,99.99
2019-02-04T00:14:39.426Z,99.99
2019-02-04T00:15:39.251Z,99.99
2019-02-04T00:16:40.927Z,99.99
2019-02-04T00:17:39.220Z,99.99
2019-02-04T00:18:39.210Z,99.99
2019-02-04T00:19:39.204Z,99.99
2019-02-04T00:20:39.227Z,99.99
2019-02-04T00:21:39.180Z,99.99
2019-02-04T00:22:39.172Z,99.99
2019-02-04T00:23:39.158Z,99.99
2019-02-04T00:24:39.151Z,99.99
2019-02-04T00:25:39.139Z,99.99
2019-02-04T00:26:39.155Z,99.99
2019-02-04T00:27:39.117Z,99.99
2019-02-04T00:28:39.104Z,99.99
2019-02-04T00:29:39.092Z,99.99
2019-02-04T00:30:39.087Z,99.99
2019-02-04T00:31:39.074Z,99.99
2019-02-04T00:32:39.099Z,99.99
2019-02-04T00:33:39.050Z,99.99
2019-02-04T00:34:51.106Z,99.99
2019-02-04T00:35:39.031Z,99.99
2019-02-04T00:36:39.028Z,99.99
2019-02-04T00:37:39.007Z,99.99
2019-02-04T00:38:39.034Z,99.99
2019-02-04T00:39:38.987Z,99.99
2019-02-04T00:40:39.054Z,99.99
2019-02-04T00:41:38.964Z,99.99
2019-02-04T00:42:38.960Z,99.99
2019-02-04T00:43:38.957Z,99.99
2019-02-04T00:44:39.069Z,99.99
2019-02-04T00:45:38.920Z,99.99
2019-02-04T00:46:38.912Z,99.99
2019-02-04T00:47:38.910Z,99.99
2019-02-04T00:48:38.892Z,99.99
2019-02-04T00:49:38.884Z,99.99
2019-02-04T00:50:38.918Z,99.99
2019-02-04T00:51:38.863Z,99.99
2019-02-04T00:52:38.847Z,99.99
2019-02-04T00:53:38.841Z,99.99
2019-02-04T00:54:38.825Z,99.99
2019-02-04T00:55:38.815Z,99.99
2019-02-04T00:56:38.841Z,99.99
2019-02-04T00:57:38.798Z,99.99
2019-02-04T00:58:38.784Z,99.99
2019-02-04T00:59:38.780Z,99.99
2019-02-04T01:00:38.765Z,99.99
2019-02-04T01:01:38.761Z,99.99
2019-02-04T01:02:38.789Z,99.99
2019-02-04T01:03:38.748Z,99.99
2019-02-04T01:04:38.723Z,99.99
2019-02-04T01:05:48.790Z,99.99
2019-02-04T01:06:38.705Z,99.99
2019-02-04T01:07:38.688Z,99.99
2019-02-04T01:08:38.717Z,99.99
2019-02-04T01:09:38.668Z,99.99
2019-02-04T01:10:38.662Z,99.99
2019-02-04T01:11:38.675Z,99.99
2019-02-04T01:12:38.635Z,99.99
2019-02-04T01:13:38.635Z,99.99
2019-02-04T01:14:38.657Z,99.99
2019-02-04T01:15:38.606Z,99.99
2019-02-04T01:16:38.594Z,99.99
2019-02-04T01:17:38.580Z,99.99
2019-02-04T01:18:38.577Z,99.99
2019-02-04T01:19:38.582Z,99.99
2019-02-04T01:20:38.644Z,99.99
2019-02-04T01:21:38.537Z,99.99
2019-02-04T01:22:38.529Z,99.99
2019-02-04T01:23:38.518Z,99.99
2019-02-04T01:24:38.505Z,99.99
2019-02-04T01:25:38.519Z,99.99
2019-02-04T01:26:38.671Z,99.99
2019-02-04T01:27:38.478Z,99.99
2019-02-04T01:28:38.464Z,99.99
2019-02-04T01:29:38.454Z,99.99
2019-02-04T01:30:38.445Z,99.99
2019-02-04T01:31:38.435Z,99.99
2019-02-04T01:32:38.463Z,99.99
2019-02-04T01:33:38.411Z,99.99
2019-02-04T01:34:38.409Z,99.99
2019-02-04T01:35:38.391Z,99.99
2019-02-04T01:36:48.385Z,99.99
2019-02-04T01:37:38.374Z,99.99
2019-02-04T01:38:38.397Z,99.99
2019-02-04T01:39:38.347Z,99.99
2019-02-04T01:40:38.380Z,99.99
2019-02-04T01:41:38.331Z,99.99
2019-02-04T01:42:38.312Z,99.99
2019-02-04T01:43:38.307Z,99.99
2019-02-04T01:44:38.463Z,99.99
2019-02-04T01:45:38.324Z,99.99
2019-02-04T01:46:38.275Z,99.99
2019-02-04T01:47:38.265Z,99.99
2019-02-04T01:48:38.251Z,99.99
2019-02-04T01:49:38.245Z,99.99
2019-02-04T01:50:38.270Z,99.99
2019-02-04T01:51:38.225Z,99.99
2019-02-04T01:52:38.214Z,99.99
2019-02-04T01:53:38.200Z,99.99
2019-02-04T01:54:38.190Z,99.99
2019-02-04T01:55:38.182Z,99.99
2019-02-04T01:56:38.237Z,99.99
2019-02-04T01:57:38.158Z,99.99
2019-02-04T01:58:38.147Z,99.99
2019-02-04T01:59:38.135Z,99.99
2019-02-04T02:00:38.131Z,99.99
2019-02-04T02:01:38.111Z,99.99
2019-02-04T02:02:38.126Z,99.99
2019-02-04T02:03:38.095Z,99.99
2019-02-04T02:04:38.080Z,99.99
2019-02-04T02:05:38.072Z,99.99
2019-02-04T02:06:38.061Z,99.99
2019-02-04T02:07:48.987Z,99.99
2019-02-04T02:08:38.037Z,99.99
2019-02-04T02:09:38.030Z,99.99
2019-02-04T02:10:38.015Z,99.99
2019-02-04T02:11:38.009Z,99.99
2019-02-04T02:12:37.997Z,99.99
2019-02-04T02:13:38.028Z,99.99
2019-02-04T02:14:37.975Z,99.99
2019-02-04T02:15:37.965Z,99.99
2019-02-04T02:16:37.952Z,99.99
2019-02-04T02:17:37.946Z,99.99
2019-02-04T02:18:37.936Z,99.84
2019-02-04T02:19:37.949Z,99.84
2019-02-04T02:20:37.913Z,99.73
2019-02-04T02:21:37.897Z,99.99
2019-02-04T02:22:37.887Z,99.99
2019-02-04T02:23:37.879Z,99.99
2019-02-04T02:24:37.876Z,99.63
2019-02-04T02:25:37.892Z,99.99
2019-02-04T02:26:37.844Z,99.94
2019-02-04T02:27:37.840Z,99.67
2019-02-04T02:28:37.823Z,99.67
2019-02-04T02:29:37.817Z,99.63
2019-02-04T02:30:37.812Z,99.67
2019-02-04T02:31:37.834Z,99.52
2019-02-04T02:32:37.780Z,99.63
2019-02-04T02:33:37.774Z,99.77
2019-02-04T02:34:37.762Z,99.46
2019-02-04T02:35:37.747Z,99.94
2019-02-04T02:36:37.737Z,99.99
2019-02-04T02:37:37.907Z,99.94
2019-02-04T02:38:50.105Z,99.15
2019-02-04T02:39:37.710Z,99.10
2019-02-04T02:40:37.699Z,99.57
2019-02-04T02:41:37.688Z,99.77
2019-02-04T02:42:37.677Z,99.41
2019-02-04T02:43:37.708Z,99.67
2019-02-04T02:44:37.661Z,99.88
2019-02-04T02:45:37.649Z,99.77
2019-02-04T02:46:38.460Z,99.77
2019-02-04T02:47:38.702Z,99.67
2019-02-04T02:48:37.617Z,99.98
2019-02-04T02:49:37.651Z,99.15
2019-02-04T02:50:37.589Z,99.67
2019-02-04T02:51:37.580Z,99.57
2019-02-04T02:52:37.565Z,99.67
2019-02-04T02:53:37.557Z,99.46
2019-02-04T02:54:37.552Z,99.67
2019-02-04T02:55:37.577Z,99.88
2019-02-04T02:56:37.527Z,99.77
2019-02-04T02:57:37.514Z,99.88
2019-02-04T02:58:37.521Z,99.67
2019-02-04T02:59:37.493Z,99.57
2019-02-04T03:00:37.487Z,99.67
2019-02-04T03:01:37.490Z,99.67
2019-02-04T03:02:37.470Z,99.40
2019-02-04T03:03:37.448Z,99.98
2019-02-04T03:04:37.446Z,99.99
2019-02-04T03:05:37.430Z,99.99
2019-02-04T03:06:37.417Z,99.99
2019-02-04T03:07:37.441Z,99.99
2019-02-04T03:08:37.399Z,99.99
2019-02-04T03:09:47.711Z,99.99
2019-02-04T03:10:37.379Z,99.99
2019-02-04T03:11:37.364Z,99.99
2019-02-04T03:12:37.354Z,99.99
2019-02-04T03:13:37.385Z,99.99
2019-02-04T03:14:37.338Z,99.99
2019-02-04T03:15:37.339Z,99.99
2019-02-04T03:16:37.312Z,99.99
2019-02-04T03:17:37.306Z,99.99
2019-02-04T03:18:37.304Z,99.99
2019-02-04T03:19:37.390Z,99.99
2019-02-04T03:20:37.273Z,99.99
2019-02-04T03:21:37.263Z,99.99
2019-02-04T03:22:37.249Z,99.99
2019-02-04T03:23:37.240Z,99.99
2019-02-04T03:24:37.230Z,99.99
2019-02-04T03:25:37.253Z,99.99
2019-02-04T03:26:37.202Z,99.99
2019-02-04T03:27:37.199Z,99.99
2019-02-04T03:28:37.193Z,99.99
2019-02-04T03:29:37.169Z,99.71
2019-02-04T03:30:37.165Z,99.99
2019-02-04T03:31:39.297Z,99.99
2019-02-04T03:32:38.145Z,99.99
2019-02-04T03:33:37.130Z,99.99
2019-02-04T03:34:37.125Z,99.98
2019-02-04T03:35:37.114Z,99.67
2019-02-04T03:36:37.098Z,99.99
2019-02-04T03:37:37.264Z,99.98
2019-02-04T03:38:37.084Z,99.88
2019-02-04T03:39:37.062Z,99.67
2019-02-04T03:40:47.556Z,99.99
2019-02-04T03:41:37.039Z,99.88
2019-02-04T03:42:37.037Z,99.99
2019-02-04T03:43:37.053Z,99.99
2019-02-04T03:44:37.008Z,99.99
2019-02-04T03:45:37.003Z,99.71
2019-02-04T03:46:37.012Z,99.99
2019-02-04T03:47:36.978Z,99.93
2019-02-04T03:48:36.975Z,99.99
2019-02-04T03:49:36.996Z,99.99
2019-02-04T03:50:36.963Z,99.99
2019-02-04T03:51:36.935Z,99.99
2019-02-04T03:52:37.500Z,99.99
2019-02-04T03:53:36.922Z,99.99
2019-02-04T03:54:36.907Z,99.99
2019-02-04T03:55:36.930Z,99.99
2019-02-04T03:56:36.882Z,99.99
2019-02-04T03:57:36.874Z,99.99
2019-02-04T03:58:36.861Z,99.99
2019-02-04T03:59:36.861Z,99.99
2019-02-04T04:00:36.843Z,99.99
2019-02-04T04:01:36.874Z,99.99
2019-02-04T04:02:36.819Z,99.99
2019-02-04T04:03:36.806Z,99.99
2019-02-04T04:04:36.797Z,99.99
2019-02-04T04:05:36.796Z,99.99
2019-02-04T04:06:36.774Z,99.99
2019-02-04T04:07:36.808Z,99.99
2019-02-04T04:08:36.755Z,99.99
2019-02-04T04:09:36.747Z,99.99
2019-02-04T04:10:36.734Z,99.99
2019-02-04T04:11:47.305Z,99.99
2019-02-04T04:12:36.715Z,99.99
2019-02-04T04:13:36.745Z,99.99
2019-02-04T04:14:36.691Z,99.99
2019-02-04T04:15:36.677Z,99.99
2019-02-04T04:16:36.673Z,99.99
2019-02-04T04:17:36.658Z,99.99
2019-02-04T04:18:36.651Z,99.99
2019-02-04T04:19:36.676Z,99.99
2019-02-04T04:20:36.625Z,99.61
2019-02-04T04:21:36.623Z,99.61
2019-02-04T04:22:36.604Z,99.51
2019-02-04T04:23:36.595Z,99.61
2019-02-04T04:24:36.585Z,99.99
2019-02-04T04:25:36.621Z,99.30
2019-02-04T04:26:36.566Z,99.19
2019-02-04T04:27:36.556Z,98.98
2019-02-04T04:28:36.538Z,98.88
2019-02-04T04:29:36.527Z,98.88
2019-02-04T04:30:36.521Z,98.98
2019-02-04T04:31:36.549Z,98.77
2019-02-04T04:32:36.499Z,98.67
2019-02-04T04:33:36.491Z,98.46
2019-02-04T04:34:36.473Z,98.46
2019-02-04T04:35:36.469Z,98.14
2019-02-04T04:36:36.460Z,98.56
2019-02-04T04:37:36.490Z,98.46
2019-02-04T04:38:36.440Z,98.46
2019-02-04T04:39:36.422Z,98.35
2019-02-04T04:40:36.417Z,98.56
2019-02-04T04:41:36.397Z,98.77
2019-02-04T04:42:47.154Z,98.25
2019-02-04T04:43:36.381Z,98.77
2019-02-04T04:44:36.370Z,98.71
2019-02-04T04:45:36.361Z,98.71
2019-02-04T04:46:36.356Z,98.29
2019-02-04T04:47:36.339Z,98.04
2019-02-04T04:48:36.367Z,98.08
2019-02-04T04:49:36.319Z,98.04
2019-02-04T04:50:36.301Z,98.08
2019-02-04T04:51:36.290Z,97.87
2019-02-04T04:52:36.287Z,97.24
2019-02-04T04:53:36.272Z,97.62
2019-02-04T04:54:36.286Z,97.03
2019-02-04T04:55:36.253Z,97.66
2019-02-04T04:56:36.243Z,97.14
2019-02-04T04:57:36.231Z,96.72
2019-02-04T04:58:37.031Z,95.88
2019-02-04T04:59:36.212Z,96.93
2019-02-04T05:00:36.236Z,95.78
2019-02-04T05:01:36.186Z,96.09
2019-02-04T05:02:36.174Z,96.19
2019-02-04T05:03:36.168Z,95.88
2019-02-04T05:04:36.154Z,96.09
2019-02-04T05:05:36.141Z,96.09
2019-02-04T05:06:36.168Z,95.78
2019-02-04T05:07:36.122Z,95.67
2019-02-04T05:08:36.112Z,95.78
2019-02-04T05:09:36.109Z,95.52
2019-02-04T05:10:36.089Z,95.98
2019-02-04T05:11:36.077Z,95.88
2019-02-04T05:12:36.110Z,95.78
2019-02-04T05:13:46.000Z,96.34
2019-02-04T05:14:36.063Z,95.88
2019-02-04T05:15:36.038Z,95.78
2019-02-04T05:16:36.024Z,95.67
2019-02-04T05:17:36.013Z,95.88
2019-02-04T05:18:38.184Z,95.78
2019-02-04T05:19:35.993Z,95.78
2019-02-04T05:20:35.978Z,96.30
2019-02-04T05:21:35.972Z,96.30
2019-02-04T05:22:35.961Z,96.51
2019-02-04T05:23:35.958Z,96.55
2019-02-04T05:24:35.955Z,96.61
2019-02-04T05:25:35.936Z,96.41
2019-02-04T05:26:35.920Z,96.41
2019-02-04T05:27:35.907Z,97.03
2019-02-04T05:28:35.896Z,96.30
2019-02-04T05:29:35.889Z,95.78
2019-02-04T05:30:35.911Z,96.72
2019-02-04T05:31:35.868Z,96.61
2019-02-04T05:32:35.917Z,96.19
2019-02-04T05:33:35.841Z,96.77
2019-02-04T05:34:35.829Z,97.18
2019-02-04T05:35:35.823Z,97.39
2019-02-04T05:36:35.851Z,96.97
2019-02-04T05:37:35.801Z,96.93
2019-02-04T05:38:35.799Z,96.77
2019-02-04T05:39:35.782Z,96.77
2019-02-04T05:40:35.771Z,96.66
2019-02-04T05:41:35.759Z,96.77
2019-02-04T05:42:35.782Z,96.72
2019-02-04T05:43:35.757Z,97.08
2019-02-04T05:44:45.797Z,96.97
2019-02-04T05:45:35.751Z,96.72
2019-02-04T05:46:35.710Z,96.83
2019-02-04T05:47:35.743Z,96.93
2019-02-04T05:48:35.744Z,96.72
2019-02-04T05:49:35.671Z,96.87
2019-02-04T05:50:35.662Z,96.61
2019-02-04T05:51:35.657Z,97.18
2019-02-04T05:52:35.650Z,97.08
2019-02-04T05:53:35.660Z,96.87
2019-02-04T05:54:35.650Z,97.56
2019-02-04T05:55:35.650Z,97.35
2019-02-04T05:56:35.611Z,96.87
2019-02-04T05:57:35.600Z,97.39
2019-02-04T05:58:35.592Z,97.29
2019-02-04T05:59:35.572Z,97.35
2019-02-04T06:00:35.640Z,97.35
2019-02-04T06:01:35.545Z,97.35
2019-02-04T06:02:35.538Z,96.83
2019-02-04T06:03:35.537Z,97.14
2019-02-04T06:04:35.522Z,97.35
2019-02-04T06:05:35.512Z,98.08
2019-02-04T06:06:35.550Z,98.23
2019-02-04T06:07:35.492Z,98.13
2019-02-04T06:08:35.488Z,97.45
2019-02-04T06:09:35.463Z,98.08
2019-02-04T06:10:35.450Z,97.98
2019-02-04T06:11:35.435Z,97.87
2019-02-04T06:12:35.522Z,97.60
2019-02-04T06:13:35.412Z,98.08
2019-02-04T06:14:35.411Z,97.81
2019-02-04T06:15:46.030Z,97.81
2019-02-04T06:16:35.380Z,98.02
2019-02-04T06:17:36.168Z,97.77
2019-02-04T06:18:35.379Z,97.77
2019-02-04T06:19:35.353Z,97.92
2019-02-04T06:20:35.369Z,98.13
2019-02-04T06:21:35.332Z,98.13
2019-02-04T06:22:35.324Z,97.71
2019-02-04T06:23:35.309Z,97.81
2019-02-04T06:24:35.332Z,97.92
2019-02-04T06:25:35.283Z,97.92
2019-02-04T06:26:35.282Z,98.13
2019-02-04T06:27:35.261Z,98.02
2019-02-04T06:28:35.258Z,98.23
2019-02-04T06:29:35.240Z,97.50
2019-02-04T06:30:35.273Z,97.60
2019-02-04T06:31:35.234Z,97.18
2019-02-04T06:32:35.213Z,96.97
2019-02-04T06:33:35.201Z,97.39
2019-02-04T06:34:35.192Z,97.39
2019-02-04T06:35:35.179Z,97.08
2019-02-04T06:36:35.205Z,97.08
2019-02-04T06:37:35.162Z,96.97
2019-02-04T06:38:35.162Z,96.97
2019-02-04T06:39:35.135Z,97.18
2019-02-04T06:40:35.128Z,97.18
2019-02-04T06:41:35.118Z,96.87
2019-02-04T06:42:35.136Z,97.18
2019-02-04T06:43:35.095Z,97.39
2019-02-04T06:44:35.086Z,98.02
2019-02-04T06:45:35.083Z,97.81
2019-02-04T06:46:45.330Z,98.13
2019-02-04T06:47:35.054Z,98.34
2019-02-04T06:48:35.106Z,98.34
2019-02-04T06:49:35.036Z,97.92
2019-02-04T06:50:35.016Z,98.13
2019-02-04T06:51:35.021Z,98.55
2019-02-04T06:52:34.994Z,98.07
2019-02-04T06:53:34.990Z,98.59
2019-02-04T06:54:35.148Z,98.65
2019-02-04T06:55:34.972Z,98.49
2019-02-04T06:56:36.035Z,98.65
2019-02-04T06:57:34.949Z,98.59
2019-02-04T06:58:34.940Z,98.97
2019-02-04T06:59:34.927Z,99.43
2019-02-04T07:00:35.014Z,98.75
2019-02-04T07:01:34.904Z,99.07
2019-02-04T07:02:34.893Z,98.65
2019-02-04T07:03:34.879Z,99.22
2019-02-04T07:04:34.870Z,99.22
2019-02-04T07:05:43.419Z,99.33
2019-02-04T07:06:35.867Z,99.38
2019-02-04T07:07:34.889Z,98.38
2019-02-04T07:08:34.838Z,98.02
2019-02-04T07:09:34.818Z,98.49
2019-02-04T07:10:34.842Z,98.07
2019-02-04T07:11:34.796Z,98.17
2019-02-04T07:12:34.806Z,98.13
2019-02-04T07:13:34.791Z,98.07
2019-02-04T07:14:34.769Z,98.17
2019-02-04T07:15:34.752Z,98.02
2019-02-04T07:16:34.770Z,98.17
2019-02-04T07:17:45.669Z,98.17
2019-02-04T07:18:34.719Z,97.44
2019-02-04T07:19:34.771Z,98.17
2019-02-04T07:20:34.813Z,97.44
2019-02-04T07:21:34.700Z,97.23
2019-02-04T07:22:34.694Z,97.12
2019-02-04T07:23:34.703Z,97.54
2019-02-04T07:24:42.483Z,98.00
2019-02-04T07:25:35.645Z,98.17
2019-02-04T07:26:34.640Z,97.86
2019-02-04T07:27:34.624Z,97.86
2019-02-04T07:28:34.616Z,97.44
2019-02-04T07:29:34.736Z,97.54
2019-02-04T07:30:34.590Z,97.27
2019-02-04T07:31:34.618Z,97.33
2019-02-04T07:32:34.573Z,96.85
2019-02-04T07:33:34.563Z,96.85
2019-02-04T07:34:34.548Z,96.81
2019-02-04T07:35:34.611Z,97.12
2019-02-04T07:36:34.605Z,97.38
2019-02-04T07:37:34.540Z,96.70
2019-02-04T07:38:34.500Z,96.91
2019-02-04T07:39:34.508Z,97.12
2019-02-04T07:40:34.537Z,97.02
2019-02-04T07:41:34.657Z,97.12
2019-02-04T07:42:34.472Z,97.02
2019-02-04T07:43:34.466Z,96.49
2019-02-04T07:44:34.484Z,96.49
2019-02-04T07:45:34.474Z,96.91
2019-02-04T07:46:34.528Z,96.28
2019-02-04T07:47:34.450Z,96.59
2019-02-04T07:48:44.946Z,95.97
2019-02-04T07:49:35.572Z,96.18
2019-02-04T07:50:34.374Z,95.97
2019-02-04T07:51:34.361Z,96.22
2019-02-04T07:52:34.369Z,96.07
2019-02-04T07:53:34.387Z,95.90
2019-02-04T07:54:34.343Z,95.44
2019-02-04T07:55:34.322Z,95.38
2019-02-04T07:56:34.307Z,95.76
2019-02-04T07:57:34.360Z,96.12
2019-02-04T07:58:34.290Z,95.90
2019-02-04T07:59:34.385Z,95.59
2019-02-04T08:00:34.279Z,95.34
2019-02-04T08:01:34.259Z,95.13
2019-02-04T08:02:34.285Z,95.06
2019-02-04T08:03:34.238Z,95.28
2019-02-04T08:04:34.225Z,95.23
2019-02-04T08:05:34.439Z,95.28
2019-02-04T08:06:34.208Z,94.96
2019-02-04T08:07:34.195Z,95.17
2019-02-04T08:08:34.219Z,95.38
2019-02-04T08:09:34.171Z,94.96
2019-02-04T08:10:34.172Z,95.23
2019-02-04T08:11:35.134Z,94.96
2019-02-04T08:12:34.140Z,95.02
2019-02-04T08:13:34.141Z,94.96
2019-02-04T08:14:34.120Z,95.13
2019-02-04T08:15:34.106Z,94.92
2019-02-04T08:16:34.103Z,94.33
2019-02-04T08:17:34.158Z,94.23
2019-02-04T08:18:34.089Z,94.54
2019-02-04T08:19:47.064Z,94.29
2019-02-04T08:20:34.052Z,94.29
2019-02-04T08:21:34.046Z,94.71
2019-02-04T08:22:34.035Z,94.12
2019-02-04T08:23:34.067Z,94.49
2019-02-04T08:24:34.039Z,94.65
2019-02-04T08:25:34.006Z,94.60
2019-02-04T08:26:34.055Z,94.39
2019-02-04T08:27:34.632Z,94.75
2019-02-04T08:28:33.966Z,94.08
2019-02-04T08:29:33.994Z,94.60
2019-02-04T08:30:33.964Z,94.18
2019-02-04T08:31:33.942Z,93.97
2019-02-04T08:32:33.924Z,94.08
2019-02-04T08:33:33.948Z,93.93
2019-02-04T08:34:33.910Z,94.18
2019-02-04T08:35:33.935Z,93.09
2019-02-04T08:36:43.437Z,93.72
2019-02-04T08:37:34.870Z,93.76
2019-02-04T08:38:33.880Z,93.72
2019-02-04T08:39:33.847Z,93.82
2019-02-04T08:40:33.841Z,93.51
2019-02-04T08:41:33.863Z,93.62
2019-02-04T08:42:35.451Z,93.76
2019-02-04T08:43:33.814Z,93.40
2019-02-04T08:44:33.800Z,93.34
2019-02-04T08:45:33.783Z,94.18
2019-02-04T08:46:33.776Z,94.29
2019-02-04T08:47:33.841Z,93.87
2019-02-04T08:48:33.759Z,94.60
2019-02-04T08:49:33.744Z,94.49
2019-02-04T08:50:43.994Z,94.60
2019-02-04T08:51:33.767Z,94.29
2019-02-04T08:52:33.713Z,94.49
2019-02-04T08:53:33.726Z,94.60
2019-02-04T08:54:33.689Z,95.23
2019-02-04T08:55:40.730Z,94.92
2019-02-04T08:56:33.709Z,95.23
2019-02-04T08:57:33.666Z,94.71
2019-02-04T08:58:33.664Z,94.92
2019-02-04T08:59:33.697Z,94.77
2019-02-04T09:00:33.644Z,94.81
2019-02-04T09:01:33.625Z,94.77
2019-02-04T09:02:33.635Z,94.49
2019-02-04T09:03:33.656Z,94.56
2019-02-04T09:04:37.184Z,94.39
2019-02-04T09:05:33.620Z,94.08
2019-02-04T09:06:33.578Z,93.80
2019-02-04T09:07:33.565Z,94.49
2019-02-04T09:08:33.556Z,95.23
2019-02-04T09:09:33.537Z,95.06
2019-02-04T09:10:33.603Z,95.23
2019-02-04T09:11:33.585Z,95.38
2019-02-04T09:12:34.169Z,95.13
2019-02-04T09:13:33.505Z,94.75
2019-02-04T09:14:33.492Z,94.71
2019-02-04T09:15:33.468Z,94.96
2019-02-04T09:16:33.455Z,95.13
2019-02-04T09:17:33.502Z,94.75
2019-02-04T09:18:44.155Z,95.28
2019-02-04T09:19:34.427Z,94.75
2019-02-04T09:20:33.416Z,95.17
2019-02-04T09:21:33.412Z,95.06
2019-02-04T09:22:33.397Z,96.12
2019-02-04T09:23:33.440Z,95.34
2019-02-04T09:24:40.876Z,95.06
2019-02-04T09:25:33.360Z,94.96
2019-02-04T09:26:33.344Z,95.28
2019-02-04T09:27:33.352Z,95.48
2019-02-04T09:28:33.329Z,95.13
2019-02-04T09:29:33.430Z,94.96
2019-02-04T09:30:33.308Z,95.44
2019-02-04T09:31:33.292Z,95.23
2019-02-04T09:32:33.286Z,94.92
2019-02-04T09:33:33.272Z,95.23
2019-02-04T09:34:33.272Z,94.92
2019-02-04T09:35:33.288Z,94.81
2019-02-04T09:36:33.245Z,95.23
2019-02-04T09:37:33.227Z,95.23
2019-02-04T09:38:33.221Z,94.65
2019-02-04T09:39:33.211Z,94.60
2019-02-04T09:40:33.202Z,94.92
2019-02-04T09:41:33.204Z,95.13
2019-02-04T09:42:33.174Z,95.02
2019-02-04T09:43:33.163Z,94.85
2019-02-04T09:44:33.163Z,95.17
2019-02-04T09:45:33.150Z,95.23
2019-02-04T09:46:33.137Z,95.02
2019-02-04T09:47:33.228Z,94.81
2019-02-04T09:48:33.111Z,94.81
2019-02-04T09:49:33.105Z,94.92
2019-02-04T09:50:33.094Z,94.92
2019-02-04T09:51:33.077Z,94.85
2019-02-04T09:52:33.072Z,94.65
2019-02-04T09:53:33.111Z,95.06
2019-02-04T09:54:33.056Z,94.96
2019-02-04T09:55:43.292Z,95.28
2019-02-04T09:56:33.034Z,95.06
2019-02-04T09:57:33.013Z,95.44
2019-02-04T09:58:33.005Z,95.38
2019-02-04T09:59:33.029Z,95.34
2019-02-04T10:00:33.021Z,95.48
2019-02-04T10:01:33.000Z,95.76
2019-02-04T10:02:32.963Z,95.17
2019-02-04T10:03:33.045Z,96.12
2019-02-04T10:04:32.957Z,95.28
2019-02-04T10:05:32.982Z,95.48
2019-02-04T10:06:32.947Z,95.48
2019-02-04T10:07:32.915Z,95.48
2019-02-04T10:08:32.897Z,94.65
2019-02-04T10:09:32.896Z,94.81
2019-02-04T10:10:32.882Z,94.60
2019-02-04T10:11:32.950Z,94.71
2019-02-04T10:12:32.859Z,94.23
2019-02-04T10:13:32.846Z,94.12
2019-02-04T10:14:32.857Z,93.91
2019-02-04T10:15:32.873Z,94.33
2019-02-04T10:16:32.831Z,94.01
2019-02-04T10:17:32.892Z,94.58
2019-02-04T10:18:32.840Z,94.27
2019-02-04T10:19:32.786Z,94.69
2019-02-04T10:20:34.506Z,94.37
2019-02-04T10:21:32.785Z,94.17
2019-02-04T10:22:32.751Z,94.48
2019-02-04T10:23:32.832Z,94.58
2019-02-04T10:24:32.733Z,94.58
2019-02-04T10:25:32.754Z,94.27
2019-02-04T10:26:43.285Z,94.33
2019-02-04T10:27:35.453Z,94.37
2019-02-04T10:28:32.752Z,93.95
2019-02-04T10:29:32.714Z,94.43
2019-02-04T10:30:32.692Z,94.23
2019-02-04T10:31:32.654Z,94.54
2019-02-04T10:32:32.680Z,93.59
2019-02-04T10:33:32.669Z,93.80
2019-02-04T10:34:32.628Z,93.63
2019-02-04T10:35:32.757Z,93.70
2019-02-04T10:36:32.605Z,93.85
2019-02-04T10:37:32.590Z,93.74
2019-02-04T10:38:32.578Z,93.74
2019-02-04T10:39:32.607Z,93.49
2019-02-04T10:40:32.716Z,93.49
2019-02-04T10:41:32.801Z,93.59
2019-02-04T10:42:32.536Z,93.80
2019-02-04T10:43:32.604Z,93.85
2019-02-04T10:44:32.576Z,93.91
2019-02-04T10:45:32.565Z,93.70
2019-02-04T10:46:32.524Z,94.23
2019-02-04T10:47:32.559Z,93.63
2019-02-04T10:48:32.486Z,94.17
2019-02-04T10:49:32.514Z,94.48
2019-02-04T10:50:32.715Z,94.37
2019-02-04T10:51:32.451Z,94.17
2019-02-04T10:52:32.443Z,94.27
2019-02-04T10:53:33.172Z,94.06
2019-02-04T10:54:32.413Z,93.99
2019-02-04T10:55:32.434Z,93.89
2019-02-04T10:56:32.428Z,94.73
2019-02-04T10:57:42.637Z,94.21
2019-02-04T10:58:32.410Z,94.69
2019-02-04T10:59:32.498Z,94.31
2019-02-04T11:00:32.386Z,94.37
2019-02-04T11:01:32.468Z,94.42
2019-02-04T11:02:32.330Z,94.42
2019-02-04T11:03:39.458Z,94.21
2019-02-04T11:04:32.333Z,94.52
2019-02-04T11:05:32.563Z,94.31
2019-02-04T11:06:32.332Z,94.42
2019-02-04T11:07:32.330Z,94.25
2019-02-04T11:08:32.933Z,94.42
2019-02-04T11:09:32.330Z,94.52
2019-02-04T11:10:32.246Z,93.93
2019-02-04T11:11:32.330Z,94.46
2019-02-04T11:12:32.272Z,94.46
2019-02-04T11:13:32.212Z,94.78
2019-02-04T11:14:32.257Z,94.78
2019-02-04T11:15:32.182Z,94.35
2019-02-04T11:16:32.177Z,94.25
2019-02-04T11:17:32.204Z,94.46
2019-02-04T11:18:32.174Z,94.25
2019-02-04T11:19:32.170Z,94.14
2019-02-04T11:20:32.209Z,94.35
2019-02-04T11:21:32.132Z,94.46
2019-02-04T11:22:32.114Z,94.56
2019-02-04T11:23:32.144Z,94.35
2019-02-04T11:24:32.096Z,93.93
2019-02-04T11:25:32.087Z,93.62
2019-02-04T11:26:32.086Z,93.87
2019-02-04T11:27:32.070Z,92.67
2019-02-04T11:28:32.072Z,91.87
2019-02-04T11:29:32.070Z,92.82
2019-02-04T11:30:32.032Z,92.61
2019-02-04T11:31:32.014Z,92.02
2019-02-04T11:32:32.027Z,91.07
2019-02-04T11:33:32.011Z,91.60
2019-02-04T11:34:42.310Z,92.33
2019-02-04T11:35:32.017Z,92.27
2019-02-04T11:36:31.995Z,90.80
2019-02-04T11:37:31.975Z,91.22
2019-02-04T11:38:31.948Z,91.53
2019-02-04T11:39:31.938Z,91.17
2019-02-04T11:40:31.952Z,90.97
2019-02-04T11:41:31.962Z,90.97
2019-02-04T11:42:31.900Z,91.32
2019-02-04T11:43:31.949Z,91.11
2019-02-04T11:44:31.875Z,91.70
2019-02-04T11:45:32.817Z,91.00
2019-02-04T11:46:31.930Z,91.07
2019-02-04T11:47:31.889Z,90.80
2019-02-04T11:48:31.834Z,91.42
2019-02-04T11:49:31.823Z,91.07
2019-02-04T11:50:31.818Z,90.90
2019-02-04T11:51:31.807Z,91.00
2019-02-04T11:52:34.985Z,90.69
2019-02-04T11:53:33.263Z,90.90
2019-02-04T11:54:31.798Z,90.69
2019-02-04T11:55:31.762Z,91.42
2019-02-04T11:56:31.749Z,91.42
2019-02-04T11:57:31.747Z,91.42
2019-02-04T11:58:31.827Z,91.11
2019-02-04T11:59:31.731Z,91.15
2019-02-04T12:00:31.710Z,90.69
2019-02-04T12:01:31.745Z,91.53
2019-02-04T12:02:34.619Z,91.00
2019-02-04T12:03:31.676Z,90.90
2019-02-04T12:04:31.708Z,91.22
2019-02-04T12:05:42.289Z,91.32
2019-02-04T12:06:31.646Z,91.64
2019-02-04T12:07:31.635Z,91.53
2019-02-04T12:08:31.627Z,91.17
2019-02-04T12:09:31.647Z,91.42
2019-02-04T12:10:31.779Z,90.97
2019-02-04T12:11:31.636Z,91.60
2019-02-04T12:12:31.756Z,91.07
2019-02-04T12:13:31.569Z,91.07
2019-02-04T12:14:31.578Z,90.75
2019-02-04T12:15:31.613Z,90.55
2019-02-04T12:16:31.590Z,90.65
2019-02-04T12:17:31.532Z,90.80
2019-02-04T12:18:31.518Z,90.65
2019-02-04T12:19:31.512Z,91.07
2019-02-04T12:20:31.501Z,91.64
2019-02-04T12:21:31.486Z,90.90
2019-02-04T12:22:31.674Z,90.80
2019-02-04T12:23:31.476Z,91.11
2019-02-04T12:24:31.460Z,91.11
2019-02-04T12:25:31.470Z,91.32
2019-02-04T12:26:31.434Z,91.32
2019-02-04T12:27:32.404Z,90.48
2019-02-04T12:28:31.437Z,90.06
2019-02-04T12:29:31.406Z,90.33
2019-02-04T12:30:31.393Z,90.58
2019-02-04T12:31:31.387Z,90.16
2019-02-04T12:32:31.373Z,90.80
2019-02-04T12:33:31.427Z,90.69
2019-02-04T12:34:31.524Z,90.06
2019-02-04T12:35:31.401Z,90.90
2019-02-04T12:36:41.960Z,89.53
2019-02-04T12:37:32.475Z,89.22
2019-02-04T12:38:31.311Z,89.64
2019-02-04T12:39:31.299Z,89.84
2019-02-04T12:40:31.330Z,89.42
2019-02-04T12:41:31.273Z,89.74
2019-02-04T12:42:31.270Z,90.37
2019-02-04T12:43:31.267Z,89.64
2019-02-04T12:44:31.252Z,89.74
2019-02-04T12:45:31.234Z,89.53
2019-02-04T12:46:31.341Z,89.32
2019-02-04T12:47:31.232Z,89.84
2019-02-04T12:48:31.203Z,90.48
2019-02-04T12:49:31.198Z,90.44
2019-02-04T12:50:31.188Z,89.11
2019-02-04T12:51:33.642Z,90.58
2019-02-04T12:52:31.360Z,90.06